20V

Mc Elroy Airfield Airport

Kremmling, Colorado, USA
METAR K20V 161953Z AUTO 27007KT 10SM CLR 31/00 A3033 RMK AO2
Observed Flight Rules
Jul-16 @ 19:53 UTC (15 minutes ago) Visual Flight Rules
Wind Visibility Clouds
270° at 7 knots 10 miles
  • Clear skies
Temperatures Readings
Current 31°C / 88°F
Dewpoint 0°C / 32°F
Humidity 13%
Altimeter 30.33" Hg
Pressure 1027 hPa
Elevation 2259
METAR K20V 161953Z AUTO 27007KT 10SM CLR 31/00 A3033 RMK AO2
Observed Flight Rules
Jul-16 @ 19:53 UTC
(15 minutes ago)
VFR
Wind Visibility
270° at 7 knots 10 miles
Clouds
  • Clear skies
Temperature Dewpoint
31°C / 88°F 0°C / 32°F
Humidity Altimeter Pressure
13% 30.33" Hg 1027 hPa